createdAt,value
2023-02-23T00:02:14.999Z,6.63
2023-02-23T00:04:42.074Z,6.50
2023-02-23T00:07:08.609Z,7.10
2023-02-23T00:09:37.926Z,7.18
2023-02-23T00:12:09.068Z,6.40
2023-02-23T00:14:37.687Z,6.05
2023-02-23T00:17:04.618Z,6.25
2023-02-23T00:19:33.533Z,5.47
2023-02-23T00:22:01.173Z,6.13
2023-02-23T00:24:27.680Z,6.10
2023-02-23T00:26:54.346Z,5.75
2023-02-23T00:29:22.281Z,6.45
2023-02-23T00:31:49.640Z,5.72
2023-02-23T00:34:16.773Z,5.80
2023-02-23T00:36:43.428Z,6.65
2023-02-23T00:39:23.065Z,6.22
2023-02-23T00:41:49.839Z,6.50
2023-02-23T00:44:16.565Z,6.65
2023-02-23T00:46:43.737Z,6.57
2023-02-23T00:49:11.108Z,6.22
2023-02-23T00:51:37.559Z,6.05
2023-02-23T00:54:04.061Z,6.47
2023-02-23T00:56:30.499Z,5.90
2023-02-23T00:58:57.047Z,5.93
2023-02-23T01:01:23.843Z,6.18
2023-02-23T01:03:50.554Z,6.55
2023-02-23T01:06:17.368Z,5.60
2023-02-23T01:08:45.378Z,6.05
2023-02-23T01:11:13.726Z,6.10
2023-02-23T01:13:41.292Z,5.88
2023-02-23T01:16:08.746Z,5.60
2023-02-23T01:18:35.576Z,7.03
2023-02-23T01:21:08.002Z,5.20
2023-02-23T01:23:34.438Z,5.97
2023-02-23T01:26:03.534Z,5.50
2023-02-23T01:28:29.969Z,5.40
2023-02-23T01:30:56.464Z,5.07
2023-02-23T01:33:22.932Z,5.43
2023-02-23T01:35:59.105Z,6.38
2023-02-23T01:38:25.507Z,5.88
2023-02-23T01:40:51.993Z,5.90
2023-02-23T01:43:25.951Z,6.07
2023-02-23T01:45:55.228Z,5.25
2023-02-23T01:48:22.870Z,6.28
2023-02-23T01:50:49.317Z,5.30
2023-02-23T01:53:17.272Z,6.20
2023-02-23T01:55:44.473Z,5.55
2023-02-23T01:58:15.479Z,6.40
2023-02-23T02:00:47.605Z,5.53
2023-02-23T02:03:17.171Z,5.10
2023-02-23T02:05:45.599Z,5.65
2023-02-23T02:08:12.499Z,5.03
2023-02-23T02:10:46.730Z,6.03
2023-02-23T02:13:15.871Z,5.50
2023-02-23T02:16:01.179Z,5.38
2023-02-23T02:18:38.247Z,6.22
2023-02-23T02:21:05.044Z,5.80
2023-02-23T02:23:43.609Z,5.07
2023-02-23T02:26:15.972Z,5.07
2023-02-23T02:31:21.058Z,5.93
2023-02-23T02:33:58.386Z,5.78
2023-02-23T02:36:27.535Z,6.68
2023-02-23T02:39:00.124Z,5.68
2023-02-23T02:41:41.879Z,6.63
2023-02-23T02:44:15.623Z,5.38
2023-02-23T02:46:48.314Z,5.15
2023-02-23T02:49:21.040Z,6.68
2023-02-23T02:51:51.876Z,5.85
2023-02-23T02:54:18.237Z,5.90
2023-02-23T02:56:44.836Z,5.25
2023-02-23T02:59:34.608Z,6.53
2023-02-23T03:02:21.093Z,5.25
2023-02-23T03:05:06.201Z,5.57
2023-02-23T03:08:10.034Z,6.00
2023-02-23T03:11:24.490Z,6.07
2023-02-23T03:14:32.610Z,5.78
2023-02-23T03:17:26.843Z,6.20
2023-02-23T03:20:39.441Z,6.25
2023-02-23T03:23:30.314Z,5.85
2023-02-23T03:26:23.624Z,5.65
2023-02-23T03:29:34.993Z,5.90
2023-02-23T03:32:20.069Z,4.88
2023-02-23T03:35:23.652Z,4.63
2023-02-23T03:38:14.801Z,5.43
2023-02-23T03:41:01.388Z,5.70
2023-02-23T03:43:53.313Z,5.72
2023-02-23T03:46:39.970Z,5.75
2023-02-23T03:49:28.089Z,6.22
2023-02-23T03:52:18.123Z,5.78
2023-02-23T03:55:05.969Z,5.50
2023-02-23T03:57:53.063Z,5.35
2023-02-23T04:00:47.952Z,6.63
2023-02-23T04:03:35.531Z,5.78
2023-02-23T04:06:20.322Z,5.15
2023-02-23T04:09:06.732Z,5.10
2023-02-23T04:12:05.739Z,4.78
2023-02-23T04:14:41.989Z,5.35
2023-02-23T04:17:09.168Z,5.55
2023-02-23T04:19:35.645Z,5.97
2023-02-23T04:22:02.148Z,5.47
2023-02-23T04:24:28.604Z,5.32
2023-02-23T04:26:55.224Z,5.03
2023-02-23T04:29:21.651Z,6.22
2023-02-23T04:31:48.817Z,4.90
2023-02-23T04:34:15.346Z,6.47
2023-02-23T04:36:42.799Z,5.63
2023-02-23T04:39:09.281Z,5.85
2023-02-23T04:41:35.741Z,5.22
2023-02-23T04:44:02.164Z,5.10
2023-02-23T04:46:29.174Z,5.47
2023-02-23T04:48:55.621Z,5.47
2023-02-23T04:51:22.046Z,5.00
2023-02-23T04:53:48.400Z,6.40
2023-02-23T04:56:15.395Z,5.25
2023-02-23T04:58:42.284Z,5.50
2023-02-23T05:01:09.728Z,5.53
2023-02-23T05:03:36.419Z,5.13
2023-02-23T05:06:03.256Z,5.57
2023-02-23T05:08:29.711Z,5.10
2023-02-23T05:10:56.127Z,5.65
2023-02-23T05:13:22.972Z,6.65
2023-02-23T05:15:49.504Z,6.57
2023-02-23T05:18:16.127Z,5.13
2023-02-23T05:20:44.900Z,5.88
2023-02-23T05:23:11.872Z,6.03
2023-02-23T05:25:39.034Z,6.53
2023-02-23T05:28:05.617Z,6.25
2023-02-23T05:30:33.210Z,5.65
2023-02-23T05:32:59.840Z,6.47
2023-02-23T05:35:26.399Z,5.80
2023-02-23T05:37:52.779Z,5.40
2023-02-23T05:40:19.264Z,5.28
2023-02-23T05:42:45.653Z,4.80
2023-02-23T05:45:12.106Z,5.85
2023-02-23T05:47:38.738Z,5.38
2023-02-23T05:50:06.499Z,5.95
2023-02-23T05:52:32.923Z,6.88
2023-02-23T05:54:59.406Z,4.95
2023-02-23T05:57:25.816Z,6.07
2023-02-23T05:59:52.252Z,5.60
2023-02-23T06:02:18.704Z,5.57
2023-02-23T06:04:45.182Z,5.30
2023-02-23T06:07:11.584Z,5.20
2023-02-23T06:09:37.980Z,6.05
2023-02-23T06:12:04.567Z,5.05
2023-02-23T06:14:30.970Z,5.78
2023-02-23T06:16:57.457Z,6.40
2023-02-23T06:19:24.020Z,5.40
2023-02-23T06:21:50.520Z,5.75
2023-02-23T06:24:17.846Z,5.05
2023-02-23T06:26:44.563Z,5.85
2023-02-23T06:29:11.996Z,5.10
2023-02-23T06:31:38.895Z,5.25
2023-02-23T06:34:05.455Z,5.88
2023-02-23T06:36:31.878Z,5.75
2023-02-23T06:38:58.711Z,5.93
2023-02-23T06:41:25.759Z,5.70
2023-02-23T06:43:52.299Z,6.30
2023-02-23T06:46:19.222Z,5.95
2023-02-23T06:48:45.682Z,5.80
2023-02-23T06:51:12.104Z,5.18
2023-02-23T06:53:38.500Z,6.35
2023-02-23T06:56:05.032Z,6.55
2023-02-23T06:58:31.503Z,6.07
2023-02-23T07:00:59.479Z,5.57
2023-02-23T07:03:26.418Z,5.68
2023-02-23T07:05:53.890Z,7.00
2023-02-23T07:08:20.462Z,5.43
2023-02-23T07:10:46.909Z,6.95
2023-02-23T07:13:13.276Z,6.53
2023-02-23T07:15:40.359Z,6.30
2023-02-23T07:18:07.211Z,6.72
2023-02-23T07:20:34.260Z,7.13
2023-02-23T07:23:00.838Z,7.32
2023-02-23T07:25:30.703Z,6.82
2023-02-23T07:27:59.084Z,6.72
2023-02-23T07:30:25.558Z,6.78
2023-02-23T07:32:52.809Z,6.80
2023-02-23T07:35:19.422Z,6.88
2023-02-23T07:37:46.069Z,6.93
2023-02-23T07:40:12.705Z,6.47
2023-02-23T07:42:39.419Z,7.05
2023-02-23T07:45:06.421Z,7.03
2023-02-23T07:47:33.200Z,7.13
2023-02-23T07:50:00.799Z,6.38
2023-02-23T07:52:27.191Z,6.35
2023-02-23T07:54:54.288Z,7.50
2023-02-23T07:57:22.427Z,7.85
2023-02-23T07:59:50.251Z,6.60
2023-02-23T08:02:16.753Z,6.68
2023-02-23T08:04:43.318Z,8.07
2023-02-23T08:07:10.161Z,6.80
2023-02-23T08:09:36.736Z,6.50
2023-02-23T08:12:03.596Z,7.30
2023-02-23T08:14:30.142Z,6.55
2023-02-23T08:16:56.715Z,6.85
2023-02-23T08:19:23.351Z,7.15
2023-02-23T08:21:50.080Z,7.53
2023-02-23T08:24:16.922Z,7.10
2023-02-23T08:26:43.352Z,7.88
2023-02-23T08:29:10.167Z,7.35
2023-02-23T08:31:36.827Z,7.25
2023-02-23T08:34:03.403Z,6.72
2023-02-23T08:36:29.841Z,6.43
2023-02-23T08:38:56.217Z,7.40
2023-02-23T08:41:22.597Z,7.03
2023-02-23T08:43:49.223Z,7.80
2023-02-23T08:46:18.602Z,8.43
2023-02-23T08:48:45.105Z,7.47
2023-02-23T08:51:11.558Z,7.45
2023-02-23T08:53:38.044Z,7.38
2023-02-23T08:56:06.179Z,7.63
2023-02-23T08:58:33.642Z,7.95
2023-02-23T09:01:00.235Z,8.00
2023-02-23T09:03:28.671Z,7.18
2023-02-23T09:05:55.957Z,7.95
2023-02-23T09:08:22.958Z,6.90
2023-02-23T09:10:49.415Z,6.72
2023-02-23T09:13:16.906Z,7.82
2023-02-23T09:15:43.742Z,7.28
2023-02-23T09:18:11.218Z,7.07
2023-02-23T09:20:37.613Z,8.15
2023-02-23T09:23:03.986Z,7.03
2023-02-23T09:25:31.591Z,9.02
2023-02-23T09:27:59.623Z,6.93
2023-02-23T09:30:27.176Z,7.28
2023-02-23T09:32:54.425Z,7.82
2023-02-23T09:35:22.280Z,8.43
2023-02-23T09:37:50.289Z,7.13
2023-02-23T09:40:17.745Z,7.38
2023-02-23T09:42:44.132Z,8.05
2023-02-23T09:45:26.487Z,8.50
2023-02-23T09:48:01.746Z,7.15
2023-02-23T09:50:29.972Z,8.88
2023-02-23T09:53:05.658Z,7.35
2023-02-23T09:55:32.397Z,7.45
2023-02-23T09:58:08.072Z,7.32
2023-02-23T10:00:38.935Z,7.50
2023-02-23T10:03:11.799Z,7.90
2023-02-23T10:05:43.918Z,8.38
2023-02-23T10:08:33.620Z,8.65
2023-02-23T10:11:04.219Z,9.32
2023-02-23T10:13:49.453Z,8.60
2023-02-23T10:16:42.608Z,11.10
2023-02-23T10:19:08.960Z,8.60
2023-02-23T10:21:39.857Z,8.10
2023-02-23T10:24:21.476Z,8.50
2023-02-23T10:26:54.211Z,8.90
2023-02-23T10:29:39.625Z,9.40
2023-02-23T10:32:07.902Z,8.00
2023-02-23T10:34:35.688Z,8.20
2023-02-23T10:37:04.098Z,9.00
2023-02-23T10:39:31.753Z,8.60
2023-02-23T10:42:06.260Z,8.90
2023-02-23T10:44:32.720Z,8.90
2023-02-23T10:47:05.943Z,9.02
2023-02-23T10:49:55.476Z,7.82
2023-02-23T10:52:26.387Z,8.00
2023-02-23T10:54:52.925Z,8.40
2023-02-23T10:57:26.889Z,9.15
2023-02-23T10:59:59.466Z,7.90
2023-02-23T11:02:27.535Z,9.52
2023-02-23T11:04:55.992Z,9.15
2023-02-23T11:07:22.535Z,8.65
2023-02-23T11:09:51.389Z,7.90
2023-02-23T11:12:22.549Z,7.85
2023-02-23T11:14:53.037Z,7.53
2023-02-23T11:17:24.426Z,8.10
2023-02-23T11:19:50.867Z,8.02
2023-02-23T11:22:26.969Z,7.50
2023-02-23T11:24:54.076Z,7.95
2023-02-23T11:27:23.120Z,8.27
2023-02-23T11:29:50.975Z,8.13
2023-02-23T11:32:18.009Z,7.25
2023-02-23T11:34:44.902Z,7.28
2023-02-23T11:37:17.354Z,7.75
2023-02-23T11:39:54.037Z,8.10
2023-02-23T11:42:33.246Z,7.50
2023-02-23T11:45:05.055Z,7.95
2023-02-23T11:47:32.705Z,7.82
2023-02-23T11:49:59.472Z,8.50
2023-02-23T11:52:27.946Z,7.97
2023-02-23T11:55:01.831Z,7.35
2023-02-23T11:57:33.656Z,7.47
2023-02-23T12:00:01.905Z,7.68
2023-02-23T12:02:29.336Z,7.05
2023-02-23T12:05:05.230Z,8.23
2023-02-23T12:07:41.828Z,8.63
2023-02-23T12:10:13.569Z,7.45
2023-02-23T12:12:51.830Z,8.05
2023-02-23T12:15:23.363Z,7.57
2023-02-23T12:17:52.116Z,6.93
2023-02-23T12:20:21.798Z,7.70
2023-02-23T12:23:11.302Z,6.82
2023-02-23T12:25:47.986Z,7.65
2023-02-23T12:28:20.199Z,8.18
2023-02-23T12:31:01.628Z,6.32
2023-02-23T12:33:46.320Z,7.32
2023-02-23T12:36:15.592Z,7.45
2023-02-23T12:38:51.951Z,7.35
2023-02-23T12:41:26.429Z,7.80
2023-02-23T12:43:59.966Z,6.95
2023-02-23T12:46:28.586Z,7.90
2023-02-23T12:49:04.229Z,6.38
2023-02-23T12:51:30.601Z,6.60
2023-02-23T12:53:57.000Z,7.00
2023-02-23T12:56:23.393Z,8.07
2023-02-23T12:59:02.051Z,7.03
2023-02-23T13:01:34.498Z,6.53
2023-02-23T13:04:20.114Z,7.13
2023-02-23T13:07:05.278Z,7.00
2023-02-23T13:09:44.020Z,7.25
2023-02-23T13:12:13.493Z,7.38
2023-02-23T13:14:43.355Z,8.45
2023-02-23T13:17:18.920Z,6.88
2023-02-23T13:19:45.304Z,7.47
2023-02-23T13:22:20.909Z,7.72
2023-02-23T13:24:48.613Z,7.03
2023-02-23T13:27:30.059Z,7.18
2023-02-23T13:29:59.161Z,7.53
2023-02-23T13:32:29.286Z,7.53
2023-02-23T13:35:00.850Z,7.25
2023-02-23T13:37:32.274Z,7.47
2023-02-23T13:40:01.715Z,6.40
2023-02-23T13:42:36.789Z,8.15
2023-02-23T13:45:22.719Z,7.45
2023-02-23T13:48:02.092Z,6.93
2023-02-23T13:50:46.578Z,7.65
2023-02-23T13:53:47.018Z,6.40
2023-02-23T13:56:16.375Z,8.30
2023-02-23T13:58:47.639Z,7.20
2023-02-23T14:01:20.430Z,7.25
2023-02-23T14:03:52.306Z,8.27
2023-02-23T14:06:19.590Z,6.90
2023-02-23T14:08:52.332Z,7.53
2023-02-23T14:11:48.201Z,6.88
2023-02-23T14:14:34.578Z,6.72
2023-02-23T14:17:16.257Z,7.28
2023-02-23T14:20:29.576Z,8.77
2023-02-23T14:23:16.285Z,6.78
2023-02-23T14:25:45.592Z,7.53
2023-02-23T14:28:27.019Z,7.45
2023-02-23T14:31:20.399Z,7.32
2023-02-23T14:33:48.599Z,7.10
2023-02-23T14:36:24.025Z,6.65
2023-02-23T14:38:53.236Z,6.70
2023-02-23T14:41:29.136Z,7.25
2023-02-23T14:44:00.318Z,7.35
2023-02-23T14:46:27.001Z,8.27
2023-02-23T14:48:58.669Z,8.48
2023-02-23T14:51:28.398Z,7.55
2023-02-23T14:53:58.202Z,6.93
2023-02-23T14:56:35.516Z,8.80
2023-02-23T14:59:07.022Z,7.43
2023-02-23T15:01:34.613Z,8.23
2023-02-23T15:04:08.265Z,7.78
2023-02-23T15:06:34.917Z,7.00
2023-02-23T15:09:02.620Z,7.25
2023-02-23T15:11:31.609Z,7.15
2023-02-23T15:13:58.739Z,7.80
2023-02-23T15:16:28.780Z,7.82
2023-02-23T15:18:55.506Z,8.68
2023-02-23T15:21:23.320Z,8.60
2023-02-23T15:23:52.231Z,8.38
2023-02-23T15:26:25.448Z,10.00
2023-02-23T15:28:51.822Z,9.23
2023-02-23T15:31:19.540Z,9.73
2023-02-23T15:33:48.675Z,9.60
2023-02-23T15:36:19.714Z,9.93
2023-02-23T15:38:47.605Z,9.90
2023-02-23T15:41:28.241Z,10.55
2023-02-23T15:43:57.299Z,12.00
2023-02-23T15:46:28.714Z,10.77
2023-02-23T15:48:58.418Z,10.23
2023-02-23T15:51:30.882Z,9.75
2023-02-23T15:53:57.430Z,10.07
2023-02-23T15:56:28.010Z,10.57
2023-02-23T15:58:57.498Z,10.50
2023-02-23T16:01:28.682Z,10.27
2023-02-23T16:04:02.994Z,11.32
2023-02-23T16:06:33.565Z,10.25
2023-02-23T16:09:19.936Z,10.00
2023-02-23T16:11:54.670Z,10.07
2023-02-23T16:14:21.980Z,10.48
2023-02-23T16:17:01.378Z,8.50
2023-02-23T16:19:40.781Z,9.98
2023-02-23T16:22:11.268Z,9.68
2023-02-23T16:24:37.810Z,8.95
2023-02-23T16:27:04.760Z,10.02
2023-02-23T16:29:33.065Z,8.88
2023-02-23T16:32:04.320Z,9.98
2023-02-23T16:34:45.127Z,9.00
2023-02-23T16:37:17.810Z,11.07
2023-02-23T16:39:44.716Z,10.32
2023-02-23T16:42:19.406Z,11.05
2023-02-23T16:44:47.215Z,11.35
2023-02-23T16:47:22.685Z,9.15
2023-02-23T16:49:52.285Z,10.02
2023-02-23T16:52:20.193Z,9.00
2023-02-23T16:54:48.677Z,8.85
2023-02-23T16:57:18.979Z,8.95
2023-02-23T16:59:50.828Z,9.57
2023-02-23T17:02:22.943Z,9.13
2023-02-23T17:04:51.473Z,9.52
2023-02-23T17:07:19.034Z,9.13
2023-02-23T17:09:45.865Z,8.45
2023-02-23T17:12:13.864Z,8.77
2023-02-23T17:14:40.322Z,8.82
2023-02-23T17:17:06.816Z,9.93
2023-02-23T17:19:33.332Z,9.85
2023-02-23T17:21:59.681Z,9.20
2023-02-23T17:24:26.264Z,9.73
2023-02-23T17:26:53.495Z,10.82
2023-02-23T17:29:20.081Z,10.52
2023-02-23T17:31:46.666Z,10.38
2023-02-23T17:34:13.309Z,10.43
2023-02-23T17:36:39.689Z,11.57
2023-02-23T17:39:08.436Z,11.10
2023-02-23T17:41:35.291Z,11.38
2023-02-23T17:44:05.647Z,10.63
2023-02-23T17:46:32.135Z,13.25
2023-02-23T17:48:58.590Z,11.63
2023-02-23T17:51:25.061Z,11.63
2023-02-23T17:53:51.644Z,12.85
2023-02-23T17:56:19.904Z,14.00
2023-02-23T17:58:50.086Z,11.52
2023-02-23T18:01:17.635Z,12.60
2023-02-23T18:03:44.182Z,12.57
2023-02-23T18:06:11.747Z,11.70
2023-02-23T18:08:39.058Z,12.88
2023-02-23T18:11:05.746Z,11.93
2023-02-23T18:13:33.800Z,11.63
2023-02-23T18:16:01.618Z,12.80
2023-02-23T18:18:28.305Z,11.82
2023-02-23T18:20:55.951Z,11.95
2023-02-23T18:23:22.810Z,13.23
2023-02-23T18:25:49.456Z,12.05
2023-02-23T18:28:16.317Z,13.07
2023-02-23T18:30:43.173Z,12.15
2023-02-23T18:33:09.885Z,12.82
2023-02-23T18:35:38.054Z,12.15
2023-02-23T18:38:05.469Z,12.52
2023-02-23T18:40:32.074Z,12.25
2023-02-23T18:42:59.216Z,12.18
2023-02-23T18:45:26.085Z,12.05
2023-02-23T18:47:52.696Z,12.60
2023-02-23T18:50:20.019Z,12.65
2023-02-23T18:52:50.914Z,13.45
2023-02-23T18:55:18.250Z,12.02
2023-02-23T18:57:44.714Z,12.13
2023-02-23T19:00:13.444Z,12.52
2023-02-23T19:02:41.492Z,12.43
2023-02-23T19:05:09.008Z,11.65
2023-02-23T19:07:35.460Z,12.18
2023-02-23T19:10:05.504Z,12.85
2023-02-23T19:12:32.196Z,13.13
2023-02-23T19:14:58.685Z,11.82
2023-02-23T19:17:25.990Z,12.05
2023-02-23T19:19:55.618Z,12.68
2023-02-23T19:22:22.557Z,11.52
2023-02-23T19:24:49.428Z,12.13
2023-02-23T19:27:16.914Z,11.73
2023-02-23T19:29:44.194Z,12.02
2023-02-23T19:32:10.718Z,13.15
2023-02-23T19:34:37.270Z,12.27
2023-02-23T19:37:03.654Z,12.00
2023-02-23T19:39:30.156Z,11.63
2023-02-23T19:41:56.551Z,12.40
2023-02-23T19:44:23.096Z,11.80
2023-02-23T19:46:49.818Z,11.85
2023-02-23T19:49:16.523Z,11.57
2023-02-23T19:51:44.265Z,12.02
2023-02-23T19:54:11.106Z,10.55
2023-02-23T19:56:38.447Z,11.02
2023-02-23T19:59:05.155Z,10.23
2023-02-23T20:01:31.992Z,12.15
2023-02-23T20:04:02.520Z,10.95
2023-02-23T20:06:32.102Z,10.85
2023-02-23T20:09:00.382Z,10.00
2023-02-23T20:11:31.918Z,11.10
2023-02-23T20:14:03.568Z,10.80
2023-02-23T20:16:34.311Z,11.38
2023-02-23T20:19:01.552Z,11.50
2023-02-23T20:21:30.871Z,11.48
2023-02-23T20:23:57.339Z,11.18
2023-02-23T20:26:30.697Z,10.35
2023-02-23T20:28:58.564Z,11.43
2023-02-23T20:31:31.778Z,10.77
2023-02-23T20:34:03.761Z,10.32
2023-02-23T20:36:30.649Z,10.90
2023-02-23T20:38:57.153Z,10.40
2023-02-23T20:41:24.147Z,10.30
2023-02-23T20:43:53.954Z,10.40
2023-02-23T20:46:20.656Z,10.23
2023-02-23T20:48:50.209Z,10.70
2023-02-23T20:51:20.947Z,11.82
2023-02-23T20:53:48.656Z,10.55
2023-02-23T20:56:17.317Z,11.07
2023-02-23T20:58:44.318Z,11.63
2023-02-23T21:01:15.476Z,10.02
2023-02-23T21:03:42.181Z,10.95
2023-02-23T21:06:08.604Z,11.05
2023-02-23T21:08:39.896Z,11.50
2023-02-23T21:11:07.833Z,10.38
2023-02-23T21:13:34.880Z,10.82
2023-02-23T21:16:03.098Z,11.68
2023-02-23T21:18:30.770Z,12.20
2023-02-23T21:20:57.514Z,11.27
2023-02-23T21:23:24.217Z,10.48
2023-02-23T21:25:50.616Z,9.63
2023-02-23T21:28:18.703Z,10.70
2023-02-23T21:30:45.191Z,12.27
2023-02-23T21:33:11.610Z,12.18
2023-02-23T21:35:38.477Z,10.73
2023-02-23T21:38:05.020Z,11.15
2023-02-23T21:40:31.578Z,10.88
2023-02-23T21:42:58.270Z,10.43
2023-02-23T21:45:24.674Z,10.60
2023-02-23T21:47:51.083Z,11.38
2023-02-23T21:50:18.288Z,10.82
2023-02-23T21:52:45.496Z,9.10
2023-02-23T21:55:21.170Z,11.55
2023-02-23T21:57:48.110Z,11.05
2023-02-23T22:00:16.344Z,10.40
2023-02-23T22:02:46.729Z,10.90
2023-02-23T22:05:14.059Z,10.70
2023-02-23T22:07:40.602Z,9.90
2023-02-23T22:10:07.320Z,9.75
2023-02-23T22:12:33.724Z,9.95
2023-02-23T22:15:02.867Z,9.68
2023-02-23T22:17:30.989Z,10.55
2023-02-23T22:19:57.495Z,9.18
2023-02-23T22:22:23.955Z,9.90
2023-02-23T22:24:50.350Z,9.40
2023-02-23T22:27:17.453Z,9.57
2023-02-23T22:29:43.900Z,9.55
2023-02-23T22:32:10.665Z,9.63
2023-02-23T22:34:37.999Z,9.93
2023-02-23T22:37:04.440Z,9.90
2023-02-23T22:39:33.692Z,8.80
2023-02-23T22:42:00.099Z,8.68
2023-02-23T22:44:26.471Z,9.40
2023-02-23T22:46:53.243Z,8.48
2023-02-23T22:49:20.512Z,8.93
2023-02-23T22:51:47.500Z,8.38
2023-02-23T22:54:13.984Z,9.18
2023-02-23T22:56:42.216Z,9.43
2023-02-23T22:59:10.861Z,8.77
2023-02-23T23:01:38.772Z,8.82
2023-02-23T23:04:10.222Z,8.82
2023-02-23T23:06:40.671Z,7.93
2023-02-23T23:09:11.908Z,9.55
2023-02-23T23:11:42.735Z,8.52
2023-02-23T23:14:10.410Z,8.98
2023-02-23T23:16:40.640Z,8.68
2023-02-23T23:19:12.002Z,9.57
2023-02-23T23:21:39.387Z,8.17
2023-02-23T23:24:06.296Z,9.05
2023-02-23T23:26:34.370Z,9.00
2023-02-23T23:29:04.620Z,8.63
2023-02-23T23:31:31.965Z,8.95
2023-02-23T23:34:00.421Z,8.68
2023-02-23T23:36:29.051Z,8.88
2023-02-23T23:38:56.505Z,9.02
2023-02-23T23:41:24.709Z,9.13
2023-02-23T23:43:55.404Z,8.63
2023-02-23T23:46:23.358Z,8.60
2023-02-23T23:48:54.310Z,8.65
2023-02-23T23:51:24.419Z,8.77
2023-02-23T23:53:52.092Z,8.73
2023-02-23T23:56:21.171Z,8.27
2023-02-23T23:58:51.086Z,8.55
